createdAt,value
2023-07-23T00:01:24.703Z,15.45
2023-07-23T00:03:51.512Z,15.35
2023-07-23T00:06:18.458Z,15.38
2023-07-23T00:08:45.185Z,15.42
2023-07-23T00:11:11.868Z,15.43
2023-07-23T00:13:39.037Z,15.36
2023-07-23T00:16:06.299Z,15.33
2023-07-23T00:18:32.969Z,15.32
2023-07-23T00:20:59.718Z,15.37
2023-07-23T00:23:26.413Z,15.30
2023-07-23T00:25:53.270Z,15.27
2023-07-23T00:28:20.012Z,15.30
2023-07-23T00:30:46.700Z,15.17
2023-07-23T00:33:13.932Z,15.28
2023-07-23T00:35:40.662Z,15.17
2023-07-23T00:38:07.312Z,15.12
2023-07-23T00:40:33.962Z,15.10
2023-07-23T00:43:00.735Z,15.15
2023-07-23T00:45:27.485Z,15.08
2023-07-23T00:47:54.284Z,14.99
2023-07-23T00:50:21.389Z,15.09
2023-07-23T00:52:48.139Z,14.89
2023-07-23T00:55:14.946Z,14.92
2023-07-23T00:57:41.670Z,14.94
2023-07-23T01:00:09.129Z,14.93
2023-07-23T01:02:35.941Z,14.94
2023-07-23T01:05:03.669Z,14.89
2023-07-23T01:07:31.292Z,14.78
2023-07-23T01:09:58.480Z,14.84
2023-07-23T01:12:25.421Z,14.76
2023-07-23T01:14:52.117Z,14.77
2023-07-23T01:17:19.748Z,14.82
2023-07-23T01:19:47.462Z,14.75
2023-07-23T01:22:14.190Z,14.69
2023-07-23T01:24:40.977Z,14.60
2023-07-23T01:27:08.053Z,14.58
2023-07-23T01:29:34.789Z,14.77
2023-07-23T01:32:01.476Z,14.75
2023-07-23T01:34:28.684Z,14.80
2023-07-23T01:36:55.399Z,14.59
2023-07-23T01:39:22.166Z,14.57
2023-07-23T01:41:49.578Z,14.51
2023-07-23T01:44:16.505Z,14.52
2023-07-23T01:46:43.172Z,14.45
2023-07-23T01:49:09.952Z,14.44
2023-07-23T01:51:36.714Z,14.40
2023-07-23T01:54:03.767Z,14.47
2023-07-23T01:56:30.468Z,14.41
2023-07-23T01:58:57.309Z,14.48
2023-07-23T02:01:24.538Z,14.47
2023-07-23T02:03:51.317Z,14.36
2023-07-23T02:06:17.991Z,14.32
2023-07-23T02:08:44.745Z,14.39
2023-07-23T02:11:11.459Z,14.35
2023-07-23T02:13:38.144Z,14.24
2023-07-23T02:16:05.221Z,14.26
2023-07-23T02:18:32.279Z,14.31
2023-07-23T02:20:58.923Z,14.16
2023-07-23T02:23:25.824Z,14.27
2023-07-23T02:25:52.627Z,14.19
2023-07-23T02:28:19.431Z,14.22
2023-07-23T02:30:46.117Z,14.19
2023-07-23T02:33:12.852Z,14.03
2023-07-23T02:35:39.714Z,14.05
2023-07-23T02:38:06.517Z,14.02
2023-07-23T02:40:34.620Z,13.96
2023-07-23T02:43:02.482Z,13.84
2023-07-23T02:45:30.446Z,13.89
2023-07-23T02:47:57.444Z,13.94
2023-07-23T02:50:24.400Z,14.02
2023-07-23T02:52:51.186Z,14.07
2023-07-23T02:55:17.871Z,14.14
2023-07-23T02:57:44.566Z,14.11
2023-07-23T03:00:12.892Z,14.03
2023-07-23T03:02:39.821Z,14.00
2023-07-23T03:05:07.246Z,14.06
2023-07-23T03:07:35.503Z,13.83
2023-07-23T03:10:02.202Z,13.88
2023-07-23T03:12:30.070Z,13.88
2023-07-23T03:14:56.745Z,14.00
2023-07-23T03:17:23.912Z,13.97
2023-07-23T03:19:50.604Z,13.94
2023-07-23T03:22:17.282Z,13.82
2023-07-23T03:24:44.005Z,13.72
2023-07-23T03:27:10.762Z,13.87
2023-07-23T03:29:37.353Z,13.84
2023-07-23T03:32:04.460Z,13.86
2023-07-23T03:34:31.818Z,13.95
2023-07-23T03:36:58.557Z,13.95
2023-07-23T03:39:25.232Z,13.98
2023-07-23T03:41:52.029Z,13.89
2023-07-23T03:44:18.847Z,13.97
2023-07-23T03:46:58.681Z,13.97
2023-07-23T03:49:25.346Z,14.03
2023-07-23T03:51:51.994Z,14.11
2023-07-23T03:54:18.726Z,14.10
2023-07-23T03:56:45.387Z,13.99
2023-07-23T03:59:12.107Z,14.14
2023-07-23T04:01:38.814Z,14.21
2023-07-23T04:04:05.605Z,14.15
2023-07-23T04:06:32.319Z,14.19
2023-07-23T04:08:59.053Z,14.26
2023-07-23T04:11:25.935Z,14.14
2023-07-23T04:13:53.041Z,14.27
2023-07-23T04:16:19.822Z,14.32
2023-07-23T04:18:51.923Z,14.27
2023-07-23T04:21:19.805Z,14.25
2023-07-23T04:23:47.816Z,14.28
2023-07-23T04:26:15.799Z,14.42
2023-07-23T04:28:42.557Z,14.50
2023-07-23T04:31:09.864Z,14.58
2023-07-23T04:33:36.998Z,14.62
2023-07-23T04:36:05.179Z,14.70
2023-07-23T04:38:31.879Z,14.79
2023-07-23T04:40:58.530Z,14.82
2023-07-23T04:43:25.612Z,14.91
2023-07-23T04:45:52.400Z,14.93
2023-07-23T04:48:19.176Z,14.90
2023-07-23T04:50:45.899Z,14.93
2023-07-23T04:53:12.726Z,15.02
2023-07-23T04:55:39.345Z,15.02
2023-07-23T04:58:06.106Z,15.07
2023-07-23T05:00:32.737Z,15.13
2023-07-23T05:02:59.404Z,15.18
2023-07-23T05:05:26.034Z,15.27
2023-07-23T05:07:52.832Z,15.33
2023-07-23T05:10:19.546Z,15.35
2023-07-23T05:12:46.380Z,15.39
2023-07-23T05:15:14.492Z,15.45
2023-07-23T05:17:42.513Z,15.54
2023-07-23T05:20:10.244Z,15.55
2023-07-23T05:22:38.478Z,15.55
2023-07-23T05:25:05.547Z,15.59
2023-07-23T05:27:32.472Z,15.65
2023-07-23T05:29:59.333Z,15.69
2023-07-23T05:32:26.234Z,15.74
2023-07-23T05:34:54.642Z,15.81
2023-07-23T05:37:21.457Z,15.86
2023-07-23T05:39:49.382Z,15.90
2023-07-23T05:42:16.110Z,15.90
2023-07-23T05:44:42.759Z,15.97
2023-07-23T05:47:09.600Z,16.02
2023-07-23T05:49:36.276Z,16.08
2023-07-23T05:52:03.732Z,16.12
2023-07-23T05:54:30.369Z,16.16
2023-07-23T05:56:57.108Z,16.23
2023-07-23T05:59:24.095Z,16.28
2023-07-23T06:01:50.842Z,16.31
2023-07-23T06:04:17.543Z,16.37
2023-07-23T06:06:44.365Z,16.43
2023-07-23T06:09:11.053Z,16.48
2023-07-23T06:11:37.850Z,16.55
2023-07-23T06:14:04.458Z,16.60
2023-07-23T06:16:31.738Z,16.64
2023-07-23T06:18:59.055Z,16.69
2023-07-23T06:21:26.467Z,16.73
2023-07-23T06:23:53.908Z,16.79
2023-07-23T06:26:20.759Z,16.83
2023-07-23T06:28:47.389Z,16.87
2023-07-23T06:31:14.085Z,16.92
2023-07-23T06:33:40.875Z,16.96
2023-07-23T06:36:07.573Z,17.01
2023-07-23T06:38:34.177Z,17.03
2023-07-23T06:41:00.889Z,17.07
2023-07-23T06:43:27.514Z,17.12
2023-07-23T06:45:54.258Z,17.17
2023-07-23T06:48:21.859Z,17.19
2023-07-23T06:50:48.890Z,17.22
2023-07-23T06:53:15.980Z,17.27
2023-07-23T06:56:02.357Z,17.31
2023-07-23T06:58:30.718Z,17.35
2023-07-23T07:00:58.992Z,17.39
2023-07-23T07:03:26.248Z,17.42
2023-07-23T07:05:52.925Z,17.48
2023-07-23T07:08:19.661Z,17.54
2023-07-23T07:10:47.668Z,17.57
2023-07-23T07:13:15.091Z,17.61
2023-07-23T07:15:42.578Z,17.64
2023-07-23T07:18:09.498Z,17.69
2023-07-23T07:20:36.142Z,17.73
2023-07-23T07:23:02.985Z,17.78
2023-07-23T07:25:29.718Z,17.83
2023-07-23T07:27:56.458Z,17.88
2023-07-23T07:30:23.047Z,17.92
2023-07-23T07:32:49.914Z,17.96
2023-07-23T07:35:16.591Z,18.02
2023-07-23T07:37:43.268Z,18.08
2023-07-23T07:40:11.782Z,18.18
2023-07-23T07:42:38.621Z,18.21
2023-07-23T07:45:05.943Z,18.24
2023-07-23T07:47:32.684Z,18.29
2023-07-23T07:49:59.547Z,18.37
2023-07-23T07:52:26.281Z,18.41
2023-07-23T07:54:53.775Z,18.49
2023-07-23T07:57:20.739Z,18.55
2023-07-23T07:59:47.675Z,18.62
2023-07-23T08:02:14.659Z,18.70
2023-07-23T08:04:41.722Z,18.80
2023-07-23T08:07:09.032Z,19.03
2023-07-23T08:09:36.054Z,19.13
2023-07-23T08:12:03.195Z,19.15
2023-07-23T08:14:30.885Z,19.27
2023-07-23T08:16:57.882Z,19.33
2023-07-23T08:19:24.823Z,19.37
2023-07-23T08:21:51.786Z,19.47
2023-07-23T08:24:18.826Z,19.55
2023-07-23T08:26:48.379Z,19.63
2023-07-23T08:29:15.137Z,19.67
2023-07-23T08:31:42.313Z,19.70
2023-07-23T08:34:09.133Z,19.70
2023-07-23T08:36:36.146Z,19.76
2023-07-23T08:39:03.300Z,19.88
2023-07-23T08:41:38.941Z,19.94
2023-07-23T08:44:28.482Z,19.95
2023-07-23T08:47:11.513Z,20.09
2023-07-23T08:49:42.925Z,20.09
2023-07-23T08:52:13.294Z,20.18
2023-07-23T08:54:43.313Z,20.19
2023-07-23T08:57:10.590Z,20.25
2023-07-23T08:59:38.429Z,20.29
2023-07-23T09:02:06.120Z,20.39
2023-07-23T09:04:32.821Z,20.45
2023-07-23T09:07:01.240Z,20.49
2023-07-23T09:09:28.148Z,20.47
2023-07-23T09:11:54.827Z,20.49
2023-07-23T09:14:21.475Z,20.52
2023-07-23T09:16:50.066Z,20.57
2023-07-23T09:19:27.905Z,20.64
2023-07-23T09:22:01.079Z,20.71
2023-07-23T09:24:34.682Z,20.79
2023-07-23T09:27:03.066Z,20.78
2023-07-23T09:29:36.771Z,20.92
2023-07-23T09:32:03.722Z,20.97
2023-07-23T09:34:30.325Z,21.04
2023-07-23T09:36:57.134Z,21.05
2023-07-23T09:39:27.283Z,21.09
2023-07-23T09:41:53.854Z,21.05
2023-07-23T09:44:25.889Z,21.19
2023-07-23T09:46:52.641Z,21.21
2023-07-23T09:49:25.125Z,21.36
2023-07-23T09:51:52.982Z,21.45
2023-07-23T09:54:21.495Z,21.51
2023-07-23T09:56:49.099Z,21.54
2023-07-23T09:59:16.075Z,21.55
2023-07-23T10:01:43.068Z,21.61
2023-07-23T10:04:11.689Z,21.65
2023-07-23T10:06:38.956Z,21.80
2023-07-23T10:09:07.119Z,21.81
2023-07-23T10:11:34.965Z,21.91
2023-07-23T10:14:03.476Z,21.97
2023-07-23T10:16:34.750Z,21.94
2023-07-23T10:19:01.953Z,21.93
2023-07-23T10:21:34.808Z,21.91
2023-07-23T10:24:02.831Z,21.93
2023-07-23T10:26:31.042Z,21.95
2023-07-23T10:29:19.881Z,21.96
2023-07-23T10:31:47.200Z,21.97
2023-07-23T10:34:23.051Z,22.06
2023-07-23T10:37:15.512Z,22.11
2023-07-23T10:39:44.299Z,22.10
2023-07-23T10:42:11.044Z,22.14
2023-07-23T10:44:40.876Z,22.10
2023-07-23T10:47:32.917Z,22.19
2023-07-23T10:50:10.351Z,22.22
2023-07-23T10:52:37.138Z,22.33
2023-07-23T10:55:04.039Z,22.35
2023-07-23T10:57:32.022Z,22.43
2023-07-23T10:59:59.340Z,22.48
2023-07-23T11:02:27.258Z,22.56
2023-07-23T11:04:57.492Z,22.59
2023-07-23T11:07:28.509Z,22.62
2023-07-23T11:09:55.925Z,22.72
2023-07-23T11:12:23.970Z,22.73
2023-07-23T11:14:53.562Z,22.80
2023-07-23T11:17:20.219Z,22.88
2023-07-23T11:19:47.445Z,22.90
2023-07-23T11:22:14.309Z,22.99
2023-07-23T11:24:41.499Z,23.08
2023-07-23T11:27:11.175Z,23.11
2023-07-23T11:29:37.903Z,23.08
2023-07-23T11:32:05.235Z,23.09
2023-07-23T11:34:32.631Z,23.08
2023-07-23T11:36:59.355Z,23.11
2023-07-23T11:39:26.229Z,23.19
2023-07-23T11:41:53.887Z,23.19
2023-07-23T11:44:20.790Z,23.20
2023-07-23T11:46:47.606Z,23.21
2023-07-23T11:49:15.088Z,23.20
2023-07-23T11:51:42.290Z,23.20
2023-07-23T11:54:11.510Z,23.20
2023-07-23T11:56:42.434Z,23.20
2023-07-23T11:59:11.372Z,23.19
2023-07-23T12:01:39.510Z,23.17
2023-07-23T12:04:07.346Z,23.15
2023-07-23T12:06:41.005Z,23.10
2023-07-23T12:09:09.490Z,23.12
2023-07-23T12:11:38.977Z,23.13
2023-07-23T12:14:07.754Z,23.15
2023-07-23T12:16:34.773Z,23.17
2023-07-23T12:19:06.386Z,23.16
2023-07-23T12:21:36.058Z,23.14
2023-07-23T12:24:19.586Z,23.08
2023-07-23T12:26:48.460Z,23.09
2023-07-23T12:29:15.768Z,23.09
2023-07-23T12:31:44.042Z,23.08
2023-07-23T12:34:11.837Z,23.08
2023-07-23T12:36:39.601Z,23.11
2023-07-23T12:39:07.316Z,23.08
2023-07-23T12:41:34.255Z,23.09
2023-07-23T12:44:02.107Z,23.09
2023-07-23T12:46:29.138Z,23.08
2023-07-23T12:48:56.044Z,23.05
2023-07-23T12:51:24.147Z,23.05
2023-07-23T12:53:50.783Z,23.07
2023-07-23T12:56:17.596Z,23.06
2023-07-23T12:58:44.251Z,23.09
2023-07-23T13:01:11.030Z,23.14
2023-07-23T13:03:39.145Z,23.18
2023-07-23T13:06:06.048Z,23.22
2023-07-23T13:08:32.952Z,23.21
2023-07-23T13:10:59.828Z,23.22
2023-07-23T13:13:27.036Z,23.23
2023-07-23T13:15:53.853Z,23.25
2023-07-23T13:18:20.516Z,23.23
2023-07-23T13:20:47.264Z,23.19
2023-07-23T13:23:14.044Z,23.21
2023-07-23T13:25:40.804Z,23.13
2023-07-23T13:28:07.449Z,23.12
2023-07-23T13:30:34.298Z,23.16
2023-07-23T13:33:01.011Z,23.12
2023-07-23T13:35:27.804Z,23.15
2023-07-23T13:37:54.479Z,23.18
2023-07-23T13:40:21.492Z,23.14
2023-07-23T13:42:48.105Z,23.13
2023-07-23T13:45:15.198Z,23.10
2023-07-23T13:47:41.936Z,23.14
2023-07-23T13:50:08.892Z,23.15
2023-07-23T13:52:35.579Z,23.19
2023-07-23T13:55:03.668Z,23.22
2023-07-23T13:57:30.367Z,23.20
2023-07-23T13:59:58.379Z,23.22
2023-07-23T14:02:26.186Z,23.23
2023-07-23T14:04:53.004Z,23.27
2023-07-23T14:07:20.040Z,23.24
2023-07-23T14:09:46.825Z,23.28
2023-07-23T14:12:13.526Z,23.27
2023-07-23T14:14:40.198Z,23.29
2023-07-23T14:17:06.894Z,23.29
2023-07-23T14:19:34.215Z,23.25
2023-07-23T14:22:00.928Z,23.22
2023-07-23T14:24:27.765Z,23.20
2023-07-23T14:26:54.498Z,23.21
2023-07-23T14:29:21.247Z,23.22
2023-07-23T14:31:47.918Z,23.23
2023-07-23T14:34:14.590Z,23.26
2023-07-23T14:36:41.197Z,23.26
2023-07-23T14:39:08.534Z,23.23
2023-07-23T14:41:35.126Z,23.25
2023-07-23T14:44:01.889Z,23.23
2023-07-23T14:46:28.651Z,23.26
2023-07-23T14:48:55.482Z,23.27
2023-07-23T14:51:22.109Z,23.29
2023-07-23T14:53:50.917Z,23.33
2023-07-23T14:56:18.176Z,23.42
2023-07-23T14:58:45.160Z,23.45
2023-07-23T15:01:12.005Z,23.49
2023-07-23T15:03:38.990Z,23.56
2023-07-23T15:06:05.849Z,23.59
2023-07-23T15:08:32.553Z,23.61
2023-07-23T15:10:59.208Z,23.63
2023-07-23T15:13:26.405Z,23.67
2023-07-23T15:15:53.387Z,23.70
2023-07-23T15:18:20.331Z,23.71
2023-07-23T15:20:47.227Z,23.72
2023-07-23T15:23:14.205Z,23.65
2023-07-23T15:25:41.097Z,23.68
2023-07-23T15:28:08.447Z,23.67
2023-07-23T15:30:35.131Z,23.62
2023-07-23T15:33:02.095Z,23.60
2023-07-23T15:35:29.657Z,23.59
2023-07-23T15:37:56.313Z,23.60
2023-07-23T15:40:22.969Z,23.60
2023-07-23T15:42:49.717Z,23.56
2023-07-23T15:45:16.364Z,23.57
2023-07-23T15:47:43.222Z,23.58
2023-07-23T15:50:10.583Z,23.63
2023-07-23T15:52:37.333Z,23.63
2023-07-23T15:55:04.040Z,23.67
2023-07-23T15:57:30.732Z,23.69
2023-07-23T15:59:57.404Z,23.69
2023-07-23T16:02:24.216Z,23.66
2023-07-23T16:04:51.009Z,23.66
2023-07-23T16:07:17.685Z,23.65
2023-07-23T16:09:44.295Z,23.65
2023-07-23T16:12:11.095Z,23.68
2023-07-23T16:14:38.329Z,23.70
2023-07-23T16:17:05.170Z,23.76
2023-07-23T16:19:31.878Z,23.71
2023-07-23T16:21:58.668Z,23.69
2023-07-23T16:24:25.381Z,23.71
2023-07-23T16:26:53.837Z,23.73
2023-07-23T16:29:20.544Z,23.72
2023-07-23T16:31:47.562Z,23.74
2023-07-23T16:34:14.466Z,23.77
2023-07-23T16:36:44.546Z,23.71
2023-07-23T16:39:11.094Z,23.71
2023-07-23T16:41:37.813Z,23.70
2023-07-23T16:44:05.748Z,23.70
2023-07-23T16:46:32.394Z,23.77
2023-07-23T16:48:59.056Z,23.84
2023-07-23T16:51:25.747Z,23.91
2023-07-23T16:53:52.486Z,23.97
2023-07-23T16:56:19.233Z,24.05
2023-07-23T16:58:49.034Z,24.10
2023-07-23T17:01:15.844Z,24.18
2023-07-23T17:03:42.581Z,24.21
2023-07-23T17:06:09.280Z,24.27
2023-07-23T17:08:35.966Z,24.28
2023-07-23T17:11:14.963Z,24.36
2023-07-23T17:13:41.685Z,24.40
2023-07-23T17:16:08.341Z,24.47
2023-07-23T17:18:35.010Z,24.49
2023-07-23T17:21:01.580Z,24.65
2023-07-23T17:23:28.249Z,24.69
2023-07-23T17:25:54.897Z,24.73
2023-07-23T17:28:21.721Z,24.76
2023-07-23T17:30:59.923Z,24.79
2023-07-23T17:33:27.147Z,24.81
2023-07-23T17:35:53.981Z,24.80
2023-07-23T17:38:20.805Z,24.81
2023-07-23T17:40:48.207Z,24.95
2023-07-23T17:43:15.255Z,25.04
2023-07-23T17:45:42.417Z,25.05
2023-07-23T17:48:11.917Z,24.93
2023-07-23T17:50:41.467Z,24.95
2023-07-23T17:53:08.197Z,24.79
2023-07-23T17:55:36.366Z,24.71
2023-07-23T17:58:03.915Z,24.64
2023-07-23T18:00:31.507Z,24.69
2023-07-23T18:02:58.743Z,24.38
2023-07-23T18:05:25.713Z,24.25
2023-07-23T18:07:52.505Z,24.21
2023-07-23T18:10:20.587Z,24.09
2023-07-23T18:12:48.104Z,24.07
2023-07-23T18:15:14.934Z,23.80
2023-07-23T18:17:42.254Z,23.56
2023-07-23T18:20:10.891Z,23.75
2023-07-23T18:22:37.774Z,23.44
2023-07-23T18:25:07.444Z,23.29
2023-07-23T18:27:36.088Z,23.23
2023-07-23T18:30:03.898Z,23.22
2023-07-23T18:32:30.852Z,23.12
2023-07-23T18:34:57.598Z,22.63
2023-07-23T18:37:24.581Z,22.43
2023-07-23T18:39:52.129Z,22.49
2023-07-23T18:42:18.870Z,22.07
2023-07-23T18:44:45.541Z,22.03
2023-07-23T18:47:13.390Z,22.01
2023-07-23T18:49:40.115Z,21.78
2023-07-23T18:52:06.920Z,21.58
2023-07-23T18:54:33.650Z,21.54
2023-07-23T18:57:00.269Z,21.51
2023-07-23T18:59:26.974Z,21.45
2023-07-23T19:01:53.787Z,21.34
2023-07-23T19:04:21.268Z,21.17
2023-07-23T19:06:48.127Z,21.00
2023-07-23T19:09:14.888Z,20.98
2023-07-23T19:11:41.570Z,20.98
2023-07-23T19:14:08.221Z,20.85
2023-07-23T19:16:35.077Z,20.83
2023-07-23T19:19:01.795Z,20.87
2023-07-23T19:21:28.463Z,20.94
2023-07-23T19:23:55.239Z,20.85
2023-07-23T19:26:21.878Z,20.86
2023-07-23T19:28:48.588Z,20.85
2023-07-23T19:31:15.252Z,20.75
2023-07-23T19:33:42.006Z,20.83
2023-07-23T19:36:08.666Z,20.64
2023-07-23T19:38:35.436Z,20.65
2023-07-23T19:41:02.218Z,20.76
2023-07-23T19:43:29.009Z,20.58
2023-07-23T19:45:56.356Z,20.49
2023-07-23T19:48:23.195Z,20.50
2023-07-23T19:50:50.673Z,20.46
2023-07-23T19:53:17.365Z,20.37
2023-07-23T19:55:44.582Z,20.46
2023-07-23T19:58:11.880Z,20.41
2023-07-23T20:00:39.086Z,20.45
2023-07-23T20:03:06.261Z,20.62
2023-07-23T20:05:33.059Z,20.44
2023-07-23T20:08:00.350Z,20.50
2023-07-23T20:10:26.996Z,20.41
2023-07-23T20:12:53.779Z,20.36
2023-07-23T20:15:21.895Z,20.06
2023-07-23T20:17:48.589Z,19.94
2023-07-23T20:20:15.495Z,20.04
2023-07-23T20:22:42.249Z,20.06
2023-07-23T20:25:09.947Z,20.08
2023-07-23T20:27:36.823Z,19.96
2023-07-23T20:30:03.990Z,19.92
2023-07-23T20:32:31.638Z,19.99
2023-07-23T20:34:58.862Z,20.03
2023-07-23T20:37:25.804Z,19.98
2023-07-23T20:39:52.720Z,19.97
2023-07-23T20:42:19.730Z,20.06
2023-07-23T20:44:46.327Z,19.93
2023-07-23T20:47:13.081Z,19.72
2023-07-23T20:49:39.830Z,19.75
2023-07-23T20:52:06.561Z,19.72
2023-07-23T20:54:33.176Z,19.59
2023-07-23T20:56:59.918Z,19.56
2023-07-23T20:59:26.535Z,19.44
2023-07-23T21:01:53.200Z,19.42
2023-07-23T21:04:19.896Z,19.29
2023-07-23T21:06:46.823Z,19.22
2023-07-23T21:09:13.543Z,19.20
2023-07-23T21:11:40.227Z,19.15
2023-07-23T21:14:06.841Z,19.16
2023-07-23T21:16:33.763Z,19.12
2023-07-23T21:19:00.559Z,19.03
2023-07-23T21:21:27.275Z,19.03
2023-07-23T21:23:53.971Z,19.00
2023-07-23T21:26:20.834Z,19.00
2023-07-23T21:28:47.405Z,18.88
2023-07-23T21:31:14.138Z,18.77
2023-07-23T21:33:40.883Z,18.78
2023-07-23T21:36:07.620Z,18.70
2023-07-23T21:38:35.483Z,18.66
2023-07-23T21:41:04.215Z,18.68
2023-07-23T21:43:31.270Z,18.61
2023-07-23T21:45:58.231Z,18.62
2023-07-23T21:48:25.030Z,18.49
2023-07-23T21:50:52.004Z,18.49
2023-07-23T21:53:18.696Z,18.45
2023-07-23T21:55:45.443Z,18.40
2023-07-23T21:58:12.115Z,18.41
2023-07-23T22:00:38.748Z,18.31
2023-07-23T22:03:05.499Z,18.27
2023-07-23T22:05:32.708Z,18.22
2023-07-23T22:07:59.429Z,18.17
2023-07-23T22:10:26.946Z,18.30
2023-07-23T22:12:53.754Z,18.29
2023-07-23T22:15:20.968Z,18.24
2023-07-23T22:17:47.827Z,18.11
2023-07-23T22:20:14.603Z,18.19
2023-07-23T22:22:41.293Z,18.21
2023-07-23T22:25:08.501Z,18.18
2023-07-23T22:27:35.107Z,18.11
2023-07-23T22:30:08.923Z,18.28
2023-07-23T22:32:41.910Z,18.38
2023-07-23T22:35:08.962Z,18.44
2023-07-23T22:37:35.666Z,18.35
2023-07-23T22:40:02.401Z,18.43
2023-07-23T22:42:29.112Z,18.44
2023-07-23T22:44:55.723Z,18.47
2023-07-23T22:47:22.537Z,18.22
2023-07-23T22:49:49.282Z,18.16
2023-07-23T22:52:16.023Z,18.28
2023-07-23T22:54:42.756Z,18.37
2023-07-23T22:57:09.490Z,18.33
2023-07-23T22:59:44.475Z,17.98
2023-07-23T23:02:12.226Z,17.96
2023-07-23T23:04:38.870Z,17.98
2023-07-23T23:07:05.719Z,18.14
2023-07-23T23:09:32.624Z,18.14
2023-07-23T23:11:59.464Z,18.20
2023-07-23T23:14:26.204Z,18.21
2023-07-23T23:16:54.404Z,18.17
2023-07-23T23:19:21.041Z,18.16
2023-07-23T23:21:47.805Z,18.15
2023-07-23T23:24:14.569Z,17.92
2023-07-23T23:26:42.605Z,17.81
2023-07-23T23:29:09.363Z,17.77
2023-07-23T23:31:36.167Z,17.70
2023-07-23T23:34:02.875Z,17.74
2023-07-23T23:36:29.955Z,17.79
2023-07-23T23:38:56.956Z,17.39
2023-07-23T23:41:23.621Z,17.50
2023-07-23T23:43:50.246Z,17.59
2023-07-23T23:46:16.994Z,17.62
2023-07-23T23:48:43.687Z,17.61
2023-07-23T23:51:10.418Z,17.55
2023-07-23T23:53:37.083Z,17.45
2023-07-23T23:56:04.050Z,17.52
2023-07-23T23:58:30.675Z,17.51
